createdAt,value
2018-08-03T00:02:30.424Z,22.2
2018-08-03T00:07:33.071Z,22.2
2018-08-03T00:12:30.415Z,22
2018-08-03T00:17:30.300Z,22.1
2018-08-03T00:22:30.317Z,22
2018-08-03T00:27:30.305Z,21.9
2018-08-03T00:32:30.322Z,21.9
2018-08-03T00:37:31.566Z,21.9
2018-08-03T00:42:30.336Z,21.9
2018-08-03T00:47:30.357Z,21.9
2018-08-03T00:52:34.661Z,21.9
2018-08-03T00:57:34.398Z,21.8
2018-08-03T01:02:47.897Z,21.7
2018-08-03T01:07:47.618Z,21.5
2018-08-03T01:12:47.603Z,21.6
2018-08-03T01:17:47.634Z,21.6
2018-08-03T01:22:47.584Z,21.5
2018-08-03T01:27:47.632Z,21.2
2018-08-03T01:32:47.632Z,21.1
2018-08-03T01:37:50.866Z,21.2
2018-08-03T01:42:50.573Z,21.2
2018-08-03T01:48:03.206Z,21.2
2018-08-03T01:53:03.108Z,21.2
2018-08-03T01:58:03.063Z,21.1
2018-08-03T02:03:03.108Z,21.2
2018-08-03T02:08:02.948Z,21
2018-08-03T02:13:02.940Z,20.8
2018-08-03T02:18:04.132Z,21
2018-08-03T02:23:02.956Z,20.8
2018-08-03T02:28:02.948Z,20.9
2018-08-03T02:33:03.226Z,21
2018-08-03T02:38:03.344Z,21
2018-08-03T02:43:03.191Z,20.9
2018-08-03T02:48:04.112Z,20.9
2018-08-03T02:53:04.063Z,20.8
2018-08-03T02:58:16.504Z,20.7
2018-08-03T03:03:16.218Z,20.7
2018-08-03T03:08:16.343Z,20.6
2018-08-03T03:13:16.387Z,20.6
2018-08-03T03:18:16.396Z,20.6
2018-08-03T03:23:16.423Z,20.6
2018-08-03T03:28:16.431Z,20.2
2018-08-03T03:33:20.181Z,20.3
2018-08-03T03:38:20.346Z,20.4
2018-08-03T03:43:30.824Z,20.4
2018-08-03T03:48:30.562Z,20.3
2018-08-03T03:53:30.554Z,20.2
2018-08-03T03:58:30.562Z,20.3
2018-08-03T04:03:30.559Z,20.3
2018-08-03T04:08:30.578Z,20.3
2018-08-03T04:13:30.530Z,20.3
2018-08-03T04:18:31.171Z,20.3
2018-08-03T04:23:30.901Z,20.4
2018-08-03T04:28:43.744Z,20.4
2018-08-03T04:33:43.441Z,20.2
2018-08-03T04:38:43.465Z,20.5
2018-08-03T04:43:43.451Z,20.7
2018-08-03T04:48:43.670Z,20.8
2018-08-03T04:53:43.567Z,21
2018-08-03T04:58:43.719Z,21.3
2018-08-03T05:03:45.964Z,21.5
2018-08-03T05:08:45.847Z,21.7
2018-08-03T05:13:58.125Z,21.9
2018-08-03T05:18:57.854Z,22.1
2018-08-03T05:23:57.857Z,22.2
2018-08-03T05:28:58.041Z,22.5
2018-08-03T05:33:58.115Z,22.7
2018-08-03T05:38:58.032Z,23
2018-08-03T05:43:58.073Z,23
2018-08-03T05:48:58.827Z,23.4
2018-08-03T05:53:58.751Z,23.6
2018-08-03T05:59:01.060Z,23.9
2018-08-03T06:04:01.331Z,24.1
2018-08-03T06:09:03.247Z,24.4
2018-08-03T06:14:02.950Z,24.5
2018-08-03T06:19:08.208Z,24.8
2018-08-03T06:24:08.197Z,25.1
2018-08-03T06:29:10.060Z,25.5
2018-08-03T06:34:09.788Z,25.6
2018-08-03T06:39:09.795Z,25.9
2018-08-03T06:44:09.790Z,26.2
2018-08-03T06:49:09.796Z,26.4
2018-08-03T06:54:09.792Z,26.7
2018-08-03T06:59:09.799Z,27
2018-08-03T07:04:09.801Z,26.9
2018-08-03T07:09:09.800Z,27.3
2018-08-03T07:14:09.808Z,27.3
2018-08-03T07:19:09.825Z,27.7
2018-08-03T07:24:09.833Z,27.9
2018-08-03T07:29:09.815Z,27.7
2018-08-03T07:34:09.805Z,28
2018-08-03T07:39:18.092Z,28.3
2018-08-03T07:44:19.303Z,28.5
2018-08-03T07:49:17.828Z,28.7
2018-08-03T07:54:17.828Z,28.9
2018-08-03T07:59:17.818Z,29.2
2018-08-03T08:04:17.831Z,29.2
2018-08-03T08:09:17.840Z,29.3
2018-08-03T08:14:17.791Z,29.7
2018-08-03T08:19:17.883Z,29.7
2018-08-03T08:24:30.308Z,29.4
2018-08-03T08:29:30.087Z,29.5
2018-08-03T08:34:29.988Z,29.7
2018-08-03T08:39:30.040Z,29.8
2018-08-03T08:44:30.101Z,29.5
2018-08-03T08:49:30.036Z,29.8
2018-08-03T08:54:30.069Z,29.8
2018-08-03T08:59:31.913Z,30.2
2018-08-03T09:04:31.563Z,30.3
2018-08-03T09:09:44.149Z,30.2
2018-08-03T09:14:43.974Z,30.1
2018-08-03T09:19:43.886Z,30.3
2018-08-03T09:24:43.898Z,30.4
2018-08-03T09:29:43.858Z,30.4
2018-08-03T09:34:43.887Z,30.2
2018-08-03T09:39:44.127Z,30.7
2018-08-03T09:44:44.113Z,30.5
2018-08-03T09:49:44.663Z,30.8
2018-08-03T09:54:44.135Z,31.4
2018-08-03T09:59:44.127Z,30.5
2018-08-03T10:04:44.136Z,31
2018-08-03T10:09:46.178Z,31.4
2018-08-03T10:14:45.911Z,31
2018-08-03T10:19:57.990Z,31.3
2018-08-03T10:24:57.741Z,31.3
2018-08-03T10:29:57.720Z,31.1
2018-08-03T10:34:57.733Z,31.4
2018-08-03T10:39:57.796Z,32.1
2018-08-03T10:44:57.822Z,32.1
2018-08-03T10:49:57.800Z,32.2
2018-08-03T10:55:01.812Z,32.3
2018-08-03T11:00:01.565Z,32.8
2018-08-03T11:05:13.672Z,32.4
2018-08-03T11:10:13.424Z,32.5
2018-08-03T11:15:13.426Z,32.7
2018-08-03T11:20:13.422Z,32.8
2018-08-03T11:25:13.598Z,32.2
2018-08-03T11:30:13.597Z,32.5
2018-08-03T11:35:13.635Z,32.9
2018-08-03T11:40:13.608Z,32.7
2018-08-03T11:45:13.608Z,32.9
2018-08-03T11:50:33.769Z,32.7
2018-08-03T11:55:33.485Z,32.6
2018-08-03T12:00:35.644Z,32.7
2018-08-03T12:05:35.350Z,33
2018-08-03T12:10:47.461Z,33.2
2018-08-03T12:15:47.188Z,33.3
2018-08-03T12:20:47.188Z,33.5
2018-08-03T12:25:47.199Z,33.7
2018-08-03T12:30:47.221Z,33.8
2018-08-03T12:35:47.197Z,33.1
2018-08-03T12:40:47.190Z,33.8
2018-08-03T12:45:47.193Z,33.4
2018-08-03T12:50:47.200Z,33.6
2018-08-03T12:55:58.500Z,34
2018-08-03T13:00:58.220Z,34.2
2018-08-03T13:05:58.239Z,33.9
2018-08-03T13:10:58.233Z,33.7
2018-08-03T13:15:58.321Z,33.7
2018-08-03T13:20:58.297Z,33.7
2018-08-03T13:25:58.293Z,33.9
2018-08-03T13:31:01.146Z,34.1
2018-08-03T13:36:00.228Z,34.1
2018-08-03T13:41:12.496Z,33.8
2018-08-03T13:46:12.169Z,33.4
2018-08-03T13:51:12.168Z,32.4
2018-08-03T13:56:12.157Z,32.2
2018-08-03T14:01:12.154Z,31.8
2018-08-03T14:06:12.160Z,31.8
2018-08-03T14:11:12.188Z,31.8
2018-08-03T14:16:12.201Z,31.4
2018-08-03T14:21:12.144Z,30.5
2018-08-03T14:26:23.977Z,30.5
2018-08-03T14:31:23.721Z,29.1
2018-08-03T14:36:23.683Z,28.5
2018-08-03T14:41:23.757Z,28.3
2018-08-03T14:46:23.707Z,27.8
2018-08-03T14:51:23.722Z,27.6
2018-08-03T14:56:23.704Z,27.5
2018-08-03T15:01:23.711Z,27.2
2018-08-03T15:06:23.719Z,27.2
2018-08-03T15:11:23.954Z,27.2
2018-08-03T15:16:23.723Z,27
2018-08-03T15:21:23.749Z,27.1
2018-08-03T15:26:23.739Z,27
2018-08-03T15:31:23.774Z,27
2018-08-03T15:36:36.199Z,26.9
2018-08-03T15:41:35.829Z,26.9
2018-08-03T15:46:36.038Z,27.1
2018-08-03T15:51:35.897Z,27.2
2018-08-03T15:56:36.149Z,27.2
2018-08-03T16:01:36.161Z,27.5
2018-08-03T16:06:36.224Z,27.2
2018-08-03T16:11:36.162Z,27.5
2018-08-03T16:16:36.197Z,27.3
2018-08-03T16:21:36.153Z,27.4
2018-08-03T16:26:36.195Z,27.4
2018-08-03T16:31:36.191Z,27.1
2018-08-03T16:36:36.187Z,27.2
2018-08-03T16:41:36.184Z,27.1
2018-08-03T16:46:48.598Z,26.9
2018-08-03T16:51:48.308Z,27
2018-08-03T16:56:48.316Z,27
2018-08-03T17:01:48.518Z,27.1
2018-08-03T17:06:48.347Z,27
2018-08-03T17:11:48.309Z,27.3
2018-08-03T17:16:48.325Z,27.4
2018-08-03T17:21:50.213Z,27.3
2018-08-03T17:26:50.150Z,27.4
2018-08-03T17:32:00.174Z,27.4
2018-08-03T17:36:59.906Z,27.4
2018-08-03T17:42:00.048Z,27.3
2018-08-03T17:46:59.844Z,27.3
2018-08-03T17:51:59.865Z,27.4
2018-08-03T17:56:59.843Z,27.2
2018-08-03T18:01:59.885Z,26.8
2018-08-03T18:07:05.275Z,26.5
2018-08-03T18:12:05.004Z,26.6
2018-08-03T18:17:17.289Z,26.5
2018-08-03T18:22:16.953Z,26.3
2018-08-03T18:27:16.973Z,26.3
2018-08-03T18:32:17.015Z,26.1
2018-08-03T18:37:17.222Z,26.1
2018-08-03T18:42:17.020Z,26.1
2018-08-03T18:47:17.016Z,25.8
2018-08-03T18:52:17.358Z,25.7
2018-08-03T18:57:17.049Z,25.6
2018-08-03T19:02:31.107Z,25.4
2018-08-03T19:07:30.893Z,25.3
2018-08-03T19:12:30.854Z,25.2
2018-08-03T19:17:30.863Z,25.1
2018-08-03T19:22:30.924Z,25
2018-08-03T19:27:30.928Z,24.9
2018-08-03T19:32:30.977Z,24.7
2018-08-03T19:37:32.496Z,24.6
2018-08-03T19:42:32.164Z,24.6
2018-08-03T19:47:44.315Z,24.6
2018-08-03T19:52:44.109Z,24.5
2018-08-03T19:57:44.068Z,24.3
2018-08-03T20:02:44.094Z,24.2
2018-08-03T20:07:44.142Z,24.1
2018-08-03T20:12:44.075Z,24.1
2018-08-03T20:17:44.096Z,24
2018-08-03T20:22:44.100Z,24
2018-08-03T20:27:44.075Z,23.7
2018-08-03T20:32:56.001Z,23.6
2018-08-03T20:37:55.744Z,23.5
2018-08-03T20:42:55.766Z,23.6
2018-08-03T20:47:55.695Z,23.5
2018-08-03T20:52:55.765Z,23.5
2018-08-03T20:57:55.765Z,23.4
2018-08-03T21:02:55.741Z,23.1
2018-08-03T21:07:55.761Z,23
2018-08-03T21:12:55.750Z,23
2018-08-03T21:17:55.778Z,23
2018-08-03T21:22:55.766Z,23
2018-08-03T21:27:55.769Z,23
2018-08-03T21:32:57.071Z,22.9
2018-08-03T21:37:56.805Z,22.8
2018-08-03T21:43:10.513Z,22.8
2018-08-03T21:48:09.065Z,22.8
2018-08-03T21:53:09.094Z,22.4
2018-08-03T21:58:09.048Z,22.4
2018-08-03T22:03:09.043Z,22.4
2018-08-03T22:08:09.053Z,22.4
2018-08-03T22:13:09.051Z,22.4
2018-08-03T22:18:09.053Z,22.3
2018-08-03T22:23:09.056Z,22.3
2018-08-03T22:28:20.080Z,22.3
2018-08-03T22:33:19.657Z,22.1
2018-08-03T22:38:19.717Z,22.1
2018-08-03T22:43:34.987Z,21.9
2018-08-03T22:48:24.522Z,21.8
2018-08-03T22:53:26.880Z,21.7
2018-08-03T22:58:26.608Z,21.6
2018-08-03T23:03:26.611Z,21.4
2018-08-03T23:08:26.611Z,21.6
2018-08-03T23:13:26.626Z,21.5
2018-08-03T23:18:26.618Z,21.4
2018-08-03T23:23:26.621Z,21.4
2018-08-03T23:28:27.953Z,21.4
2018-08-03T23:33:27.678Z,21.4
2018-08-03T23:38:39.584Z,21.3
2018-08-03T23:43:39.501Z,21.2
2018-08-03T23:48:39.427Z,21.1
2018-08-03T23:53:39.309Z,21.1
2018-08-03T23:58:39.323Z,21
